WetterOnline ( https://www.wetteronline.at )

Wetter aktuell Rothaargebirge

Aktuelles Wetter: Kahler Asten (841m)

6-stündlich | Neueste Meldungen
Ortszeit Temperatur Wetter
So, 04.12. 7:00 -4.9° C Nebel
So, 04.12. 1:00 -4.9° C Nebel
Sa, 03.12. 19:00 -5.0° C Schneegriesel
Sa, 03.12. 13:00 -4.7° C leichter Schneefall
Sa, 03.12. 7:00 -5.1° C Nebel
Sa, 03.12. 1:00 -4.5° C Nebel
Fr, 02.12. 19:00 -4.0° C leichter Schneefall
Fr, 02.12. 13:00 -3.6° C Schneefall
Ortszeit Temperatur Wetter
So, 04.12. 12:30 -3.2° C Nebel
So, 04.12. 12:20 -3.2° C Nebel
So, 04.12. 12:10 -3.3° C Nebel
So, 04.12. 12:00 -3.4° C Nebel
So, 04.12. 11:50 -3.4° C Nebel
So, 04.12. 11:40 -3.5° C Nebel
So, 04.12. 11:30 -3.6° C Nebel
So, 04.12. 11:00 -3.8° C Nebel
So, 04.12. 10:30 -4.0° C Nebel
So, 04.12. 10:00 -4.2° C Nebel
So, 04.12. 9:30 -4.4° C Nebel
Ortszeit Relative Feuchte Sichtweite
So, 04.12. 7:00 96% 100 m
So, 04.12. 1:00 96% 100 m
Sa, 03.12. 19:00 96% 100 m
Sa, 03.12. 13:00 96% 0.2 km
Sa, 03.12. 7:00 96% 0.2 km
Sa, 03.12. 1:00 97% 100 m
Fr, 02.12. 19:00 97% 1.4 km
Fr, 02.12. 13:00 97% 0.8 km
Ortszeit Relative Feuchte Sichtweite
So, 04.12. 12:30 99% <100 m
So, 04.12. 12:20 99% -
So, 04.12. 12:10 98% -
So, 04.12. 12:00 98% <100 m
So, 04.12. 11:50 98% -
So, 04.12. 11:40 97% -
So, 04.12. 11:30 98% <100 m
So, 04.12. 11:00 97% <100 m
So, 04.12. 10:30 97% <100 m
So, 04.12. 10:00 96% <100 m
So, 04.12. 9:30 96% <100 m
Ortszeit Niederschlagsmenge Niederschlagsart
So, 04.12. 7:00 0.1 l/m2 in 12 Std. Schnee
So, 04.12. 1:00 0.1 l/m2 in 6 Std. Schnee
Sa, 03.12. 19:00 0.5 l/m2 in 12 Std. Schnee
Sa, 03.12. 13:00 0.1 l/m2 in 6 Std. Schnee
Sa, 03.12. 7:00 0.2 l/m2 in 12 Std. Schnee
Sa, 03.12. 1:00 0.2 l/m2 in 6 Std. Schnee
Fr, 02.12. 19:00 1 l/m2 in 12 Std. Schnee
Fr, 02.12. 13:00 0.1 l/m2 in 6 Std. Schnee, Sprühregen
Ortszeit Niederschlagsmenge Niederschlagsart
So, 04.12. 12:30 0.0 l/m2 in 30 Min -
So, 04.12. 12:20 keine Meldung -
So, 04.12. 12:10 keine Meldung -
So, 04.12. 12:00 0.0 l/m2 in 1 Std. -
So, 04.12. 11:50 keine Meldung -
So, 04.12. 11:40 keine Meldung -
So, 04.12. 11:30 0.0 l/m2 in 30 Min -
So, 04.12. 11:00 0.0 l/m2 in 1 Std. -
So, 04.12. 10:30 0.0 l/m2 in 30 Min -
So, 04.12. 10:00 0.0 l/m2 in 1 Std. Schnee
So, 04.12. 9:30 0.0 l/m2 in 30 Min -
Ortszeit Stärke Spitze Richtung
km/h Bft. km/h Grad Sektor
So, 04.12. 7:00 31 5 44 90° O
So, 04.12. 1:00 20 4 33 90° O
Sa, 03.12. 19:00 14 3 25 100° O
Sa, 03.12. 13:00 17 3 39 80° O
Sa, 03.12. 7:00 22 4 40 90° O
Sa, 03.12. 1:00 24 4 54 80° O
Fr, 02.12. 19:00 28 4 48 70° O
Fr, 02.12. 13:00 22 4 40 80° O
Ortszeit Stärke Spitze Richtung
km/h Bft. km/h Grad Sektor
So, 04.12. 12:30 31 5 43 80° O
So, 04.12. 12:20 31 5 - 80° O
So, 04.12. 12:10 31 5 - 80° O
So, 04.12. 12:00 28 4 44 80° O
So, 04.12. 11:50 28 4 - 80° O
So, 04.12. 11:40 31 5 - 80° O
So, 04.12. 11:30 31 5 44 80° O
So, 04.12. 11:00 31 5 44 90° O
So, 04.12. 10:30 29 5 47 90° O
So, 04.12. 10:00 32 5 47 80° O
So, 04.12. 9:30 32 5 47 90° O
Ortszeit Untergrenze Bedeckung Gattung
total tief tief mittel hoch
So, 04.12. 7:00 <30 m 8/8 0/8 - - -
So, 04.12. 1:00 <30 m 8/8 0/8 - - -
Sa, 03.12. 19:00 <30 m 8/8 0/8 - - -
Sa, 03.12. 13:00 <30 m 8/8 0/8 - - -
Sa, 03.12. 7:00 <30 m 8/8 0/8 - - -
Sa, 03.12. 1:00 <30 m 8/8 0/8 - - -
Fr, 02.12. 19:00 30 m 7/8 7/8 - - -
Fr, 02.12. 13:00 <30 m 8/8 0/8 - - -
Ortszeit Bedeckungsgrad in Achtel und Wolkenuntergrenze
So, 04.12. 12:30 8(<30m)
So, 04.12. 12:20 8(<30m)
So, 04.12. 12:10 8
So, 04.12. 12:00 8(<30m)
So, 04.12. 11:50 8(<30m)
So, 04.12. 11:40 8
So, 04.12. 11:30 8(<30m)
So, 04.12. 11:00 8(<30m)
So, 04.12. 10:30 8(<30m)
So, 04.12. 10:00 8(<30m)
So, 04.12. 9:30 8(<30m)
Ortszeit Stationsdruck (hPa) Tendenz (hPa in 3 Std.)
So, 04.12. 7:00 913 + 0,3
So, 04.12. 1:00 914 - 1,1
Sa, 03.12. 19:00 916 - 0,2
Sa, 03.12. 13:00 917 - 0,8
Sa, 03.12. 7:00 917 - 0,8
Sa, 03.12. 1:00 918 - 0,1
Fr, 02.12. 19:00 919 + 0,3
Fr, 02.12. 13:00 919 - 0,7
Ortszeit Stationsdruck (hPa) Tendenz (hPa in 3 Std.)
So, 04.12. 12:30 913 - 0,3
So, 04.12. 12:20 913 keine Meldung
So, 04.12. 12:10 913 keine Meldung
So, 04.12. 12:00 913 - 0,1
So, 04.12. 11:50 913 keine Meldung
So, 04.12. 11:40 913 keine Meldung
So, 04.12. 11:30 914 + 0,1
So, 04.12. 11:00 914 + 0,5
So, 04.12. 10:30 914 + 0,3
So, 04.12. 10:00 913 0,0
So, 04.12. 9:30 913 + 0,1
Ortszeit Schneehöhe (cm)
So, 04.12. 7:00 9
So, 04.12. 1:00 10
Sa, 03.12. 19:00 10
Sa, 03.12. 13:00 8
Sa, 03.12. 7:00 8
Sa, 03.12. 1:00 8
Fr, 02.12. 19:00 4
Fr, 02.12. 13:00 0
Ortszeit Schneehöhe (cm)
So, 04.12. 12:30 8
So, 04.12. 12:20 8
So, 04.12. 12:10 8
So, 04.12. 12:00 8
So, 04.12. 11:50 8
So, 04.12. 11:40 8
So, 04.12. 11:30 8
So, 04.12. 11:00 8
So, 04.12. 10:30 8
So, 04.12. 10:00 8
So, 04.12. 9:30 8
Link zu dieser Seite / Seite empfehlen

Das Wetter in ...